Crane Creek, Mississippi
Current Conditions -  °F | °C
As of 7:53 AM on Thursday 27 Nov 2014 (Local Time) from KGPT Reporting Station
Clear Clear  
Wind Chill: 43°   Ceiling: Unl
Heat Index: 48°   Visibility: 10mi
Dew Point: 38°   Wind: 10mph
Humidity: 68%   Direction: 330°NNW
Pressure: 30.4"   Gusts: NA
Location:  30.7239°N, 89.1669°W
Report Text: KGPT 271353Z 33009KT 10SM CLR 09/03 A3040 RMK AO2 SLP294 T00890033 PNO $
Loading
Personal Weather Stations






























Interactive Weather Map New forecast layout! Learn more

10-Day Weather Forecast

Advertisements
Track Severe Weather on mobile